Time;durP1;ratioP1;P1;durP2;ratioP2;P2;SDS_P1;SDS_P2;PMS_P1;PMS_P2;Temp;Humidity;BMP_temperature;BMP_pressure;BME280_temperature;BME280_humidity;BME280_pressure;Samples;Min_cycle;Max_cycle;Signal;HPM_P1;HPM_P2
2023/03/26 00:00:04;;;;;;;;;;;;;;;;;;5073871;28;20296;-75
2023/03/26 00:02:30;;;;;;;;;;;;;;;;;;5072435;28;20300;-73
2023/03/26 00:04:56;;;;;;;;;;;;;;;;;;5073787;28;20003;-75
2023/03/26 00:07:22;;;;;;;;;;;;;;;;;;5074130;28;20381;-74
2023/03/26 00:09:47;;;;;;;;;;;;;;;;;;5073644;28;19919;-74
2023/03/26 00:12:13;;;;;;;;;;;;;;;;;;5074002;28;20365;-75
2023/03/26 00:14:39;;;;;;;;;;;;;;;;;;5073699;28;19948;-74
2023/03/26 00:17:07;;;;;;;;;;;;;;;;;;5072331;28;19908;-75
2023/03/26 00:19:33;;;;;;;;;;;;;;;;;;5073776;28;19913;-74
2023/03/26 00:21:59;;;;;;;;;;;;;;;;;;5073837;28;19909;-75
2023/03/26 00:24:28;;;;;;;;;;;;;;;;;;5073798;28;20275;-76
2023/03/26 00:26:54;;;;;;;;;;;;;;;;;;5073451;28;20430;-76
2023/03/26 00:29:21;;;;;;;;;;;;;;;;;;5073939;28;19908;-76
2023/03/26 00:31:47;;;;;;;;;;;;;;;;;;5073515;28;19912;-76
2023/03/26 00:34:14;;;;;;;;;;;;;;;;;;5073470;28;19909;-75
2023/03/26 00:36:41;;;;;;;;;;;;;;;;;;5075543;28;20361;-74
2023/03/26 00:39:07;;;;;;;;;;;;;;;;;;5077251;28;20325;-75
2023/03/26 00:41:41;;;;;;;;;;;;;;;;;;5077675;28;19955;-75
2023/03/26 00:44:07;;;;;;;;;;;;;;;;;;5077700;28;19908;-75
2023/03/26 00:46:33;;;;;;;;;;;;;;;;;;5077278;28;20023;-76
2023/03/26 00:48:59;;;;;;;;;;;;;;;;;;5077272;28;19909;-75
2023/03/26 00:51:25;;;;;;;;;;;;;;;;;;5077187;28;20327;-75
2023/03/26 00:53:51;;;;;;;;;;;;;;;;;;5077389;28;19995;-74
2023/03/26 00:56:17;;;;;;;;;;;;;;;;;;5077171;28;19908;-76
2023/03/26 00:58:43;;;;;;;;;;;;;;;;;;5076870;28;19962;-75
2023/03/26 01:01:09;;;;;;;;;;;;;;;;;;5075719;28;19908;-75
2023/03/26 01:03:35;;;;;;;;;;;;;;;;;;5076941;28;19916;-75
2023/03/26 01:06:06;;;;;;;;;;;;;;;;;;5076840;28;19908;-75
2023/03/26 01:08:32;;;;;;;;;;;;;;;;;;5077038;28;19938;-76
2023/03/26 01:11:01;;;;;;;;;;;;;;;;;;5076764;28;19912;-75
2023/03/26 01:13:27;;;;;;;;;;;;;;;;;;5076806;28;19939;-74
2023/03/26 01:15:53;;;;;;;;;;;;;;;;;;5077012;28;20327;-74
2023/03/26 01:18:19;;;;;;;;;;;;;;;;;;5076910;28;20415;-75
2023/03/26 01:20:45;;;;;;;;;;;;;;;;;;5076624;28;19912;-75
2023/03/26 01:23:11;;;;;;;;;;;;;;;;;;5075309;28;19915;-75
2023/03/26 01:25:37;;;;;;;;;;;;;;;;;;5076624;28;19912;-75
2023/03/26 01:28:04;;;;;;;;;;;;;;;;;;5076517;28;19908;-74
2023/03/26 01:30:30;;;;;;;;;;;;;;;;;;5076520;28;19940;-76
2023/03/26 01:32:56;;;;;;;;;;;;;;;;;;5076450;28;19909;-75
2023/03/26 01:35:22;;;;;;;;;;;;;;;;;;5076721;28;19909;-75
2023/03/26 01:37:51;;;;;;;;;;;;;;;;;;5076338;28;19912;-75
2023/03/26 01:40:17;;;;;;;;;;;;;;;;;;5076041;28;20336;-74
2023/03/26 01:42:43;;;;;;;;;;;;;;;;;;5076239;28;19908;-75
2023/03/26 01:45:09;;;;;;;;;;;;;;;;;;5076504;28;19919;-75
2023/03/26 01:47:35;;;;;;;;;;;;;;;;;;5076288;28;19908;-75
2023/03/26 01:50:01;;;;;;;;;;;;;;;;;;5076101;28;19931;-76
2023/03/26 01:52:27;;;;;;;;;;;;;;;;;;5076452;28;20319;-74
2023/03/26 01:54:53;;;;;;;;;;;;;;;;;;5076035;28;19909;-75
2023/03/26 01:57:19;;;;;;;;;;;;;;;;;;5075951;28;19959;-75
2023/03/26 01:59:45;;;;;;;;;;;;;;;;;;5074521;28;20387;-75
2023/03/26 02:02:10;;;;;;;;;;;;;;;;;;5076188;28;19908;-75
2023/03/26 02:04:36;;;;;;;;;;;;;;;;;;5076091;28;19915;-75
2023/03/26 02:07:04;;;;;;;;;;;;;;;;;;5075815;28;20011;-75
2023/03/26 02:09:30;;;;;;;;;;;;;;;;;;5074575;28;19908;-75
2023/03/26 02:11:56;;;;;;;;;;;;;;;;;;5076056;28;19998;-76
2023/03/26 02:14:22;;;;;;;;;;;;;;;;;;5075712;28;20007;-75
2023/03/26 02:16:50;;;;;;;;;;;;;;;;;;5075780;28;19982;-75
2023/03/26 02:19:20;;;;;;;;;;;;;;;;;;5075516;28;19913;-75
2023/03/26 02:21:48;;;;;;;;;;;;;;;;;;5074241;28;20391;-75
2023/03/26 02:24:14;;;;;;;;;;;;;;;;;;5075689;28;20430;-75
2023/03/26 02:26:40;;;;;;;;;;;;;;;;;;5075443;28;19908;-75
2023/03/26 02:29:06;;;;;;;;;;;;;;;;;;5075916;28;19915;-75
2023/03/26 02:31:32;;;;;;;;;;;;;;;;;;5075665;28;19909;-76
2023/03/26 02:33:57;;;;;;;;;;;;;;;;;;5075516;28;19915;-75
2023/03/26 02:36:25;;;;;;;;;;;;;;;;;;5075724;28;19908;-75
2023/03/26 02:38:51;;;;;;;;;;;;;;;;;;5074032;28;19983;-75
2023/03/26 02:41:17;;;;;;;;;;;;;;;;;;5074689;28;19921;-76
2023/03/26 02:43:43;;;;;;;;;;;;;;;;;;5075130;28;19915;-76
2023/03/26 02:46:09;;;;;;;;;;;;;;;;;;5075020;28;19995;-75
2023/03/26 02:48:35;;;;;;;;;;;;;;;;;;5075346;28;20330;-75
2023/03/26 02:51:01;;;;;;;;;;;;;;;;;;5073630;28;19908;-75
2023/03/26 02:53:28;;;;;;;;;;;;;;;;;;5075025;28;19954;-75
2023/03/26 02:55:54;;;;;;;;;;;;;;;;;;5074826;28;20380;-76
2023/03/26 02:58:20;;;;;;;;;;;;;;;;;;5074684;28;19908;-75
2023/03/26 03:00:49;;;;;;;;;;;;;;;;;;5074866;28;20381;-75
2023/03/26 03:03:16;;;;;;;;;;;;;;;;;;5074715;28;19909;-76
2023/03/26 03:05:42;;;;;;;;;;;;;;;;;;5074637;28;19916;-75
2023/03/26 03:08:08;;;;;;;;;;;;;;;;;;5074643;28;20316;-76
2023/03/26 03:10:34;;;;;;;;;;;;;;;;;;5075117;28;19991;-75
2023/03/26 03:13:00;;;;;;;;;;;;;;;;;;5075007;28;20430;-75
2023/03/26 03:15:26;;;;;;;;;;;;;;;;;;5074670;28;19909;-74
2023/03/26 03:17:52;;;;;;;;;;;;;;;;;;5074397;28;19908;-77
2023/03/26 03:20:18;;;;;;;;;;;;;;;;;;5074300;28;19916;-76
2023/03/26 03:22:44;;;;;;;;;;;;;;;;;;5074431;28;19940;-75
2023/03/26 03:25:13;;;;;;;;;;;;;;;;;;5074379;28;19939;-75
2023/03/26 03:27:39;;;;;;;;;;;;;;;;;;5074241;28;19912;-76
2023/03/26 03:30:05;;;;;;;;;;;;;;;;;;5074403;28;20361;-75
2023/03/26 03:32:30;;;;;;;;;;;;;;;;;;5074169;28;19908;-76
2023/03/26 03:34:56;;;;;;;;;;;;;;;;;;5074310;28;19959;-76
2023/03/26 03:37:23;;;;;;;;;;;;;;;;;;5074190;28;19908;-75
2023/03/26 03:39:49;;;;;;;;;;;;;;;;;;5073820;28;20397;-76
2023/03/26 03:42:15;;;;;;;;;;;;;;;;;;5074374;28;19908;-75
2023/03/26 03:44:41;;;;;;;;;;;;;;;;;;5073937;28;19917;-77
2023/03/26 03:47:09;;;;;;;;;;;;;;;;;;5073949;28;19908;-74
2023/03/26 03:49:35;;;;;;;;;;;;;;;;;;5074205;28;20384;-76
2023/03/26 03:52:01;;;;;;;;;;;;;;;;;;5073889;28;19908;-76
2023/03/26 03:54:27;;;;;;;;;;;;;;;;;;5074426;28;19908;-76
2023/03/26 03:56:53;;;;;;;;;;;;;;;;;;5074080;28;20388;-75
2023/03/26 03:59:19;;;;;;;;;;;;;;;;;;5073935;28;19912;-74
2023/03/26 04:01:49;;;;;;;;;;;;;;;;;;5073822;28;20404;-73
2023/03/26 04:04:15;;;;;;;;;;;;;;;;;;5073782;28;19959;-73
2023/03/26 04:06:41;;;;;;;;;;;;;;;;;;5074107;28;19944;-74
2023/03/26 04:09:09;;;;;;;;;;;;;;;;;;5073689;28;19909;-75
2023/03/26 04:11:35;;;;;;;;;;;;;;;;;;5072972;28;19915;-76
2023/03/26 04:14:00;;;;;;;;;;;;;;;;;;5073896;28;19995;-75
2023/03/26 04:16:26;;;;;;;;;;;;;;;;;;5073671;28;20046;-74
2023/03/26 04:18:52;;;;;;;;;;;;;;;;;;5073843;28;20300;-75
2023/03/26 04:21:18;;;;;;;;;;;;;;;;;;5073595;28;20372;-76
2023/03/26 04:23:44;;;;;;;;;;;;;;;;;;5072269;28;19915;-76
2023/03/26 04:26:12;;;;;;;;;;;;;;;;;;5073935;28;19909;-75
2023/03/26 04:28:41;;;;;;;;;;;;;;;;;;5073832;28;19908;-76
2023/03/26 04:31:06;;;;;;;;;;;;;;;;;;5073592;28;19916;-75
2023/03/26 04:33:32;;;;;;;;;;;;;;;;;;5073567;28;19909;-75
2023/03/26 04:36:01;;;;;;;;;;;;;;;;;;5073408;28;19919;-75
2023/03/26 04:38:27;;;;;;;;;;;;;;;;;;5072051;28;20398;-75
2023/03/26 04:40:53;;;;;;;;;;;;;;;;;;5073147;28;19963;-75
2023/03/26 04:43:19;;;;;;;;;;;;;;;;;;5073439;28;19932;-76
2023/03/26 04:45:46;;;;;;;;;;;;;;;;;;5073417;28;20262;-74
2023/03/26 04:48:13;;;;;;;;;;;;;;;;;;5072237;28;19940;-75
2023/03/26 04:50:39;;;;;;;;;;;;;;;;;;5072199;28;19916;-75
2023/03/26 04:53:05;;;;;;;;;;;;;;;;;;5073517;28;19954;-76
2023/03/26 04:55:31;;;;;;;;;;;;;;;;;;5073302;28;19909;-74
2023/03/26 04:57:58;;;;;;;;;;;;;;;;;;5073181;28;19955;-74
2023/03/26 05:00:24;;;;;;;;;;;;;;;;;;5073140;28;19912;-74
2023/03/26 05:02:54;;;;;;;;;;;;;;;;;;5073447;28;19908;-73
2023/03/26 05:05:20;;;;;;;;;;;;;;;;;;5073298;28;19909;-74
2023/03/26 05:07:46;;;;;;;;;;;;;;;;;;5073268;28;19915;-75
2023/03/26 05:10:12;;;;;;;;;;;;;;;;;;5073317;28;19908;-75
2023/03/26 05:12:38;;;;;;;;;;;;;;;;;;5073110;28;20065;-75
2023/03/26 05:15:04;;;;;;;;;;;;;;;;;;5071777;28;19908;-74
2023/03/26 05:17:33;;;;;;;;;;;;;;;;;;5071702;28;19995;-75
2023/03/26 05:19:59;;;;;;;;;;;;;;;;;;5073162;28;19912;-75
2023/03/26 05:22:25;;;;;;;;;;;;;;;;;;5074681;28;20285;-75
2023/03/26 05:24:51;;;;;;;;;;;;;;;;;;5076841;28;19915;-74
2023/03/26 05:27:19;;;;;;;;;;;;;;;;;;5076784;28;19908;-75
2023/03/26 05:29:45;;;;;;;;;;;;;;;;;;5076498;28;20399;-75
2023/03/26 05:32:11;;;;;;;;;;;;;;;;;;5075391;28;19934;-75
2023/03/26 05:34:36;;;;;;;;;;;;;;;;;;5076421;28;19909;-75
2023/03/26 05:37:02;;;;;;;;;;;;;;;;;;5076482;28;20008;-75
2023/03/26 05:39:28;;;;;;;;;;;;;;;;;;5074869;28;20429;-76
2023/03/26 05:41:54;;;;;;;;;;;;;;;;;;5076786;28;19915;-75
2023/03/26 05:44:20;;;;;;;;;;;;;;;;;;5076630;28;20377;-73
2023/03/26 05:46:46;;;;;;;;;;;;;;;;;;5076238;28;19915;-73
2023/03/26 05:49:12;;;;;;;;;;;;;;;;;;5076210;28;19908;-76
2023/03/26 05:51:38;;;;;;;;;;;;;;;;;;5076609;28;20315;-73
2023/03/26 05:54:04;;;;;;;;;;;;;;;;;;5076462;28;19915;-76
2023/03/26 05:56:30;;;;;;;;;;;;;;;;;;5076006;28;19909;-76
2023/03/26 05:58:56;;;;;;;;;;;;;;;;;;5075960;28;19923;-76
2023/03/26 06:01:24;;;;;;;;;;;;;;;;;;5075938;28;19916;-74
2023/03/26 06:03:50;;;;;;;;;;;;;;;;;;5076257;28;19940;-76
2023/03/26 06:06:16;;;;;;;;;;;;;;;;;;5075910;28;19991;-77
2023/03/26 06:08:42;;;;;;;;;;;;;;;;;;5075840;28;19944;-75
2023/03/26 06:11:09;;;;;;;;;;;;;;;;;;5075827;28;20088;-76
2023/03/26 06:13:35;;;;;;;;;;;;;;;;;;5075812;28;19909;-76
2023/03/26 06:16:01;;;;;;;;;;;;;;;;;;5075724;28;20348;-75
2023/03/26 06:18:26;;;;;;;;;;;;;;;;;;5075927;28;20262;-76
2023/03/26 06:20:52;;;;;;;;;;;;;;;;;;5075507;28;19994;-76
2023/03/26 06:23:18;;;;;;;;;;;;;;;;;;5075511;28;19912;-76
2023/03/26 06:25:45;;;;;;;;;;;;;;;;;;5075476;28;19916;-75
2023/03/26 06:28:10;;;;;;;;;;;;;;;;;;5075774;28;19956;-77
2023/03/26 06:30:36;;;;;;;;;;;;;;;;;;5074145;28;20001;-76
2023/03/26 06:33:02;;;;;;;;;;;;;;;;;;5075084;28;19908;-76
2023/03/26 06:35:28;;;;;;;;;;;;;;;;;;5074869;28;19916;-75
2023/03/26 06:37:54;;;;;;;;;;;;;;;;;;5074055;28;20270;-74
2023/03/26 06:40:20;;;;;;;;;;;;;;;;;;5075307;28;19924;-75
2023/03/26 06:42:46;;;;;;;;;;;;;;;;;;5075421;28;19908;-76
2023/03/26 06:45:12;;;;;;;;;;;;;;;;;;5075407;28;19917;-75
2023/03/26 06:47:38;;;;;;;;;;;;;;;;;;5075063;28;20328;-75
2023/03/26 06:50:04;;;;;;;;;;;;;;;;;;5074007;28;19965;-75
2023/03/26 06:52:30;;;;;;;;;;;;;;;;;;5075200;28;19958;-75
2023/03/26 06:54:56;;;;;;;;;;;;;;;;;;5074927;28;19957;-75
2023/03/26 06:57:22;;;;;;;;;;;;;;;;;;5074772;28;20399;-76
2023/03/26 06:59:48;;;;;;;;;;;;;;;;;;5074757;28;19923;-75
2023/03/26 07:02:14;;;;;;;;;;;;;;;;;;5074861;28;20297;-75
2023/03/26 07:04:40;;;;;;;;;;;;;;;;;;5074739;28;19958;-76
2023/03/26 07:07:06;;;;;;;;;;;;;;;;;;5074638;28;19944;-74
2023/03/26 07:09:32;;;;;;;;;;;;;;;;;;5073414;28;20329;-76
2023/03/26 07:11:58;;;;;;;;;;;;;;;;;;5075092;28;20331;-76
2023/03/26 07:14:24;;;;;;;;;;;;;;;;;;5074778;28;19999;-74
2023/03/26 07:16:50;;;;;;;;;;;;;;;;;;5074434;28;20037;-75
2023/03/26 07:19:15;;;;;;;;;;;;;;;;;;5074359;28;19913;-75
2023/03/26 07:21:41;;;;;;;;;;;;;;;;;;5074330;28;19978;-74
2023/03/26 07:24:07;;;;;;;;;;;;;;;;;;5074273;28;20336;-75
2023/03/26 07:26:33;;;;;;;;;;;;;;;;;;5074309;28;19908;-75
2023/03/26 07:28:59;;;;;;;;;;;;;;;;;;5074188;28;19908;-74
2023/03/26 07:31:26;;;;;;;;;;;;;;;;;;5074346;28;19931;-76
2023/03/26 07:33:52;;;;;;;;;;;;;;;;;;5074359;28;19909;-75
2023/03/26 07:36:18;;;;;;;;;;;;;;;;;;5074079;28;19989;-76
2023/03/26 07:38:44;;;;;;;;;;;;;;;;;;5073995;28;19915;-76
2023/03/26 07:41:10;;;;;;;;;;;;;;;;;;5072560;28;19928;-75
2023/03/26 07:43:36;;;;;;;;;;;;;;;;;;5073984;28;19908;-74
2023/03/26 07:46:02;;;;;;;;;;;;;;;;;;5072593;28;19916;-74
2023/03/26 07:48:28;;;;;;;;;;;;;;;;;;5073958;28;19908;-74
2023/03/26 07:50:54;;;;;;;;;;;;;;;;;;5074383;28;19908;-75
2023/03/26 07:53:20;;;;;;;;;;;;;;;;;;5072576;28;20007;-74
2023/03/26 07:55:46;;;;;;;;;;;;;;;;;;5073943;28;19952;-74
2023/03/26 07:58:12;;;;;;;;;;;;;;;;;;5073913;28;20364;-75
2023/03/26 08:00:38;;;;;;;;;;;;;;;;;;5073687;28;19962;-75
2023/03/26 08:03:04;;;;;;;;;;;;;;;;;;5073987;28;19909;-77
2023/03/26 08:05:30;;;;;;;;;;;;;;;;;;5074145;28;20004;-75
2023/03/26 08:07:56;;;;;;;;;;;;;;;;;;5074193;28;20368;-74
2023/03/26 08:10:22;;;;;;;;;;;;;;;;;;5073864;28;19908;-75
2023/03/26 08:12:47;;;;;;;;;;;;;;;;;;5073771;28;20388;-74
2023/03/26 08:15:13;;;;;;;;;;;;;;;;;;5073662;28;19909;-75
2023/03/26 08:17:41;;;;;;;;;;;;;;;;;;5073825;28;19919;-73
2023/03/26 08:20:08;;;;;;;;;;;;;;;;;;5073783;28;19966;-76
2023/03/26 08:22:35;;;;;;;;;;;;;;;;;;5073927;28;19909;-76
2023/03/26 08:25:01;;;;;;;;;;;;;;;;;;5073553;28;19908;-76
2023/03/26 08:27:28;;;;;;;;;;;;;;;;;;5073491;28;19915;-75
2023/03/26 08:29:54;;;;;;;;;;;;;;;;;;5073722;28;19908;-76
2023/03/26 08:32:20;;;;;;;;;;;;;;;;;;5073785;28;19954;-75
2023/03/26 08:34:47;;;;;;;;;;;;;;;;;;5073718;28;19909;-75
2023/03/26 08:37:13;;;;;;;;;;;;;;;;;;5073470;28;19916;-76
2023/03/26 08:39:40;;;;;;;;;;;;;;;;;;5073454;28;19920;-76
2023/03/26 08:42:06;;;;;;;;;;;;;;;;;;5072432;28;19915;-75
2023/03/26 08:44:32;;;;;;;;;;;;;;;;;;5073463;28;19909;-76
2023/03/26 08:46:58;;;;;;;;;;;;;;;;;;5073422;28;19915;-75
2023/03/26 08:49:25;;;;;;;;;;;;;;;;;;5073263;28;19999;-74
2023/03/26 08:51:53;;;;;;;;;;;;;;;;;;5072523;28;21386;-76
2023/03/26 08:54:19;;;;;;;;;;;;;;;;;;5073560;28;19918;-74
2023/03/26 08:56:45;;;;;;;;;;;;;;;;;;5073750;28;20003;-75
2023/03/26 08:59:10;;;;;;;;;;;;;;;;;;5077118;28;19963;-75
2023/03/26 09:01:36;;;;;;;;;;;;;;;;;;5077071;28;19908;-75
2023/03/26 09:04:02;;;;;;;;;;;;;;;;;;5077267;28;20276;-76
2023/03/26 09:06:28;;;;;;;;;;;;;;;;;;5076964;28;20396;-75
2023/03/26 09:08:54;;;;;;;;;;;;;;;;;;5077041;28;19908;-74
2023/03/26 09:11:20;;;;;;;;;;;;;;;;;;5076843;28;19991;-76
2023/03/26 09:13:46;;;;;;;;;;;;;;;;;;5077263;28;19968;-76
2023/03/26 09:16:12;;;;;;;;;;;;;;;;;;5076722;28;19916;-76
2023/03/26 09:18:38;;;;;;;;;;;;;;;;;;5076795;28;19919;-74
2023/03/26 09:21:04;;;;;;;;;;;;;;;;;;5076573;28;19912;-74
2023/03/26 09:23:30;;;;;;;;;;;;;;;;;;5076622;28;19915;-74
2023/03/26 09:25:56;;;;;;;;;;;;;;;;;;5077022;28;20339;-75
2023/03/26 09:28:22;;;;;;;;;;;;;;;;;;5076569;28;20399;-75
2023/03/26 09:30:48;;;;;;;;;;;;;;;;;;5076619;28;19914;-75
2023/03/26 09:33:14;;;;;;;;;;;;;;;;;;5076494;28;19909;-76
2023/03/26 09:35:40;;;;;;;;;;;;;;;;;;5076825;28;19916;-75
2023/03/26 09:38:09;;;;;;;;;;;;;;;;;;5076762;28;19916;-76
2023/03/26 09:40:35;;;;;;;;;;;;;;;;;;5076356;28;19924;-75
2023/03/26 09:43:01;;;;;;;;;;;;;;;;;;5076327;28;20451;-75
2023/03/26 09:45:27;;;;;;;;;;;;;;;;;;5076309;28;19908;-75
2023/03/26 09:47:53;;;;;;;;;;;;;;;;;;5075166;28;20046;-76
2023/03/26 09:50:20;;;;;;;;;;;;;;;;;;5076477;28;20376;-77
2023/03/26 09:52:46;;;;;;;;;;;;;;;;;;5076160;28;20398;-76
2023/03/26 09:55:13;;;;;;;;;;;;;;;;;;5076093;28;19908;-75
2023/03/26 09:57:39;;;;;;;;;;;;;;;;;;5076026;28;19997;-76
2023/03/26 10:00:06;;;;;;;;;;;;;;;;;;5075986;28;20391;-77
2023/03/26 10:02:32;;;;;;;;;;;;;;;;;;5075944;28;20292;-79
2023/03/26 10:04:58;;;;;;;;;;;;;;;;;;5076337;28;19914;-76
2023/03/26 10:07:24;;;;;;;;;;;;;;;;;;5075872;28;19922;-77
2023/03/26 10:09:50;;;;;;;;;;;;;;;;;;5074720;28;19909;-77
2023/03/26 10:12:16;;;;;;;;;;;;;;;;;;5076044;28;19908;-76
2023/03/26 10:14:42;;;;;;;;;;;;;;;;;;5075776;28;19958;-76
2023/03/26 10:17:09;;;;;;;;;;;;;;;;;;5075702;28;19912;-77
2023/03/26 10:19:35;;;;;;;;;;;;;;;;;;5075560;28;19936;-76
2023/03/26 10:22:02;;;;;;;;;;;;;;;;;;5075605;28;19943;-76
2023/03/26 10:24:28;;;;;;;;;;;;;;;;;;5075646;28;19923;-77
2023/03/26 10:26:54;;;;;;;;;;;;;;;;;;5075576;28;19908;-78
2023/03/26 10:29:20;;;;;;;;;;;;;;;;;;5075509;28;19908;-76
2023/03/26 10:31:46;;;;;;;;;;;;;;;;;;5075613;28;19909;-77
2023/03/26 10:34:12;;;;;;;;;;;;;;;;;;5075367;28;20352;-77
2023/03/26 10:36:38;;;;;;;;;;;;;;;;;;5075367;28;19908;-75
2023/03/26 10:39:04;;;;;;;;;;;;;;;;;;5075235;28;19909;-75
2023/03/26 10:41:30;;;;;;;;;;;;;;;;;;5075335;28;20050;-76
2023/03/26 10:43:56;;;;;;;;;;;;;;;;;;5075172;28;19909;-76
2023/03/26 10:46:23;;;;;;;;;;;;;;;;;;5075096;28;20009;-76
2023/03/26 10:48:49;;;;;;;;;;;;;;;;;;5075038;28;19916;-75
2023/03/26 10:51:15;;;;;;;;;;;;;;;;;;5075015;28;19958;-74
2023/03/26 10:53:41;;;;;;;;;;;;;;;;;;5074932;28;20003;-77
2023/03/26 10:56:09;;;;;;;;;;;;;;;;;;5075042;28;20009;-76
2023/03/26 10:58:35;;;;;;;;;;;;;;;;;;5074776;28;20373;-75
2023/03/26 11:01:01;;;;;;;;;;;;;;;;;;5074698;28;19912;-75
2023/03/26 11:03:27;;;;;;;;;;;;;;;;;;5074933;28;19909;-75
2023/03/26 11:05:53;;;;;;;;;;;;;;;;;;5074690;28;20383;-75
2023/03/26 11:08:19;;;;;;;;;;;;;;;;;;5074668;28;19913;-77
2023/03/26 11:10:45;;;;;;;;;;;;;;;;;;5074913;28;19909;-76
2023/03/26 11:13:11;;;;;;;;;;;;;;;;;;5075009;28;19948;-77
2023/03/26 11:15:37;;;;;;;;;;;;;;;;;;5074577;28;19917;-76
2023/03/26 11:18:02;;;;;;;;;;;;;;;;;;5074574;28;19908;-75
2023/03/26 11:20:28;;;;;;;;;;;;;;;;;;5074043;28;19917;-75
2023/03/26 11:22:54;;;;;;;;;;;;;;;;;;5074390;28;19909;-77
2023/03/26 11:25:20;;;;;;;;;;;;;;;;;;5074526;28;19908;-76
2023/03/26 11:27:46;;;;;;;;;;;;;;;;;;5074342;28;19908;-76
2023/03/26 11:30:12;;;;;;;;;;;;;;;;;;5074323;28;20288;-75
2023/03/26 11:32:38;;;;;;;;;;;;;;;;;;5074198;28;19915;-76
2023/03/26 11:35:04;;;;;;;;;;;;;;;;;;5072802;28;19975;-76
2023/03/26 11:37:30;;;;;;;;;;;;;;;;;;5074101;28;19908;-76
2023/03/26 11:39:56;;;;;;;;;;;;;;;;;;5073955;28;20027;-77
2023/03/26 11:42:22;;;;;;;;;;;;;;;;;;5074252;28;19959;-75
2023/03/26 11:44:48;;;;;;;;;;;;;;;;;;5074608;28;19912;-76
2023/03/26 11:47:14;;;;;;;;;;;;;;;;;;5073963;28;19915;-78
2023/03/26 11:49:40;;;;;;;;;;;;;;;;;;5073943;28;19908;-74
2023/03/26 11:52:07;;;;;;;;;;;;;;;;;;5073895;28;19909;-74
2023/03/26 11:54:33;;;;;;;;;;;;;;;;;;5073886;28;19912;-75
2023/03/26 11:57:00;;;;;;;;;;;;;;;;;;5073755;28;20282;-75
2023/03/26 11:59:26;;;;;;;;;;;;;;;;;;5073772;28;20276;-74
2023/03/26 12:01:52;;;;;;;;;;;;;;;;;;5074065;28;19908;-76
2023/03/26 12:04:18;;;;;;;;;;;;;;;;;;5074117;28;19916;-74
2023/03/26 12:06:44;;;;;;;;;;;;;;;;;;5073982;28;19909;-74
2023/03/26 12:09:10;;;;;;;;;;;;;;;;;;5073903;28;19908;-75
2023/03/26 12:11:36;;;;;;;;;;;;;;;;;;5073744;28;19908;-75
2023/03/26 12:14:02;;;;;;;;;;;;;;;;;;5074111;28;19909;-75
2023/03/26 12:16:28;;;;;;;;;;;;;;;;;;5073604;28;19909;-74
2023/03/26 12:18:54;;;;;;;;;;;;;;;;;;5073626;28;20007;-75
2023/03/26 12:21:20;;;;;;;;;;;;;;;;;;5073574;28;20273;-75
2023/03/26 12:23:46;;;;;;;;;;;;;;;;;;5073601;28;19916;-75
2023/03/26 12:26:13;;;;;;;;;;;;;;;;;;5073555;28;19908;-75
2023/03/26 12:28:39;;;;;;;;;;;;;;;;;;5073631;28;19962;-75
2023/03/26 12:31:06;;;;;;;;;;;;;;;;;;5073651;28;19913;-74
2023/03/26 12:33:37;;;;;;;;;;;;;;;;;;5077009;28;19914;-74
2023/03/26 12:36:03;;;;;;;;;;;;;;;;;;5076303;28;20301;-77
2023/03/26 12:38:33;;;;;;;;;;;;;;;;;;5076256;28;19912;-76
2023/03/26 12:41:00;;;;;;;;;;;;;;;;;;5077493;28;19931;-76
2023/03/26 12:43:25;;;;;;;;;;;;;;;;;;5077395;28;19939;-75
2023/03/26 12:45:51;;;;;;;;;;;;;;;;;;5077393;28;20373;-74
2023/03/26 12:48:18;;;;;;;;;;;;;;;;;;5077454;28;19932;-74
2023/03/26 12:50:43;;;;;;;;;;;;;;;;;;5077380;28;19920;-75
2023/03/26 12:53:09;;;;;;;;;;;;;;;;;;5077216;28;19934;-74
2023/03/26 12:55:36;;;;;;;;;;;;;;;;;;5077391;28;19932;-75
2023/03/26 12:58:02;;;;;;;;;;;;;;;;;;5077139;28;20341;-79
2023/03/26 13:00:29;;;;;;;;;;;;;;;;;;5077681;28;19995;-74
2023/03/26 13:02:57;;;;;;;;;;;;;;;;;;5077215;28;20419;-74
2023/03/26 13:05:23;;;;;;;;;;;;;;;;;;5076922;28;19908;-76
2023/03/26 13:07:49;;;;;;;;;;;;;;;;;;5076945;28;19912;-76
2023/03/26 13:10:15;;;;;;;;;;;;;;;;;;5076882;28;19935;-75
2023/03/26 13:12:41;;;;;;;;;;;;;;;;;;5076870;28;19996;-74
2023/03/26 13:15:07;;;;;;;;;;;;;;;;;;5077060;28;19908;-74
2023/03/26 13:17:33;;;;;;;;;;;;;;;;;;5076793;28;19908;-74
2023/03/26 13:19:59;;;;;;;;;;;;;;;;;;5076764;28;19935;-76
2023/03/26 13:22:25;;;;;;;;;;;;;;;;;;5076749;28;20284;-77
2023/03/26 13:24:52;;;;;;;;;;;;;;;;;;5077117;28;19909;-74
2023/03/26 13:27:18;;;;;;;;;;;;;;;;;;5076787;28;19909;-75
2023/03/26 13:29:45;;;;;;;;;;;;;;;;;;5076498;28;20407;-74
2023/03/26 13:32:11;;;;;;;;;;;;;;;;;;5076632;28;19915;-75
2023/03/26 13:34:38;;;;;;;;;;;;;;;;;;5076445;28;19995;-75
2023/03/26 13:37:04;;;;;;;;;;;;;;;;;;5076641;28;20355;-73
2023/03/26 13:39:30;;;;;;;;;;;;;;;;;;5076238;28;19916;-76
2023/03/26 13:41:56;;;;;;;;;;;;;;;;;;5076618;28;19909;-77
2023/03/26 13:44:22;;;;;;;;;;;;;;;;;;5076022;28;19943;-77
2023/03/26 13:46:48;;;;;;;;;;;;;;;;;;5076274;28;19912;-75
2023/03/26 13:49:14;;;;;;;;;;;;;;;;;;5074777;28;19916;-75
2023/03/26 13:51:40;;;;;;;;;;;;;;;;;;5076055;28;20042;-75
2023/03/26 13:54:06;;;;;;;;;;;;;;;;;;5076250;28;19955;-76
2023/03/26 13:56:33;;;;;;;;;;;;;;;;;;5076069;28;20337;-75
2023/03/26 13:58:59;;;;;;;;;;;;;;;;;;5074723;28;20066;-77
2023/03/26 14:01:32;;;;;;;;;;;;;;;;;;5076050;28;19909;-75
2023/03/26 14:03:58;;;;;;;;;;;;;;;;;;5076163;28;20007;-75
2023/03/26 14:06:24;;;;;;;;;;;;;;;;;;5074632;28;20025;-76
2023/03/26 14:08:50;;;;;;;;;;;;;;;;;;5075861;28;19915;-76
2023/03/26 14:11:16;;;;;;;;;;;;;;;;;;5076151;28;20009;-76
2023/03/26 14:13:42;;;;;;;;;;;;;;;;;;5075781;28;19908;-76
2023/03/26 14:16:08;;;;;;;;;;;;;;;;;;5075798;28;19979;-76
2023/03/26 14:18:34;;;;;;;;;;;;;;;;;;5075680;28;19908;-77
2023/03/26 14:20:59;;;;;;;;;;;;;;;;;;5075842;28;19912;-78
2023/03/26 14:23:25;;;;;;;;;;;;;;;;;;5075598;28;20442;-76
2023/03/26 14:25:51;;;;;;;;;;;;;;;;;;5075807;28;19943;-76
2023/03/26 14:28:17;;;;;;;;;;;;;;;;;;5075463;28;19915;-77
2023/03/26 14:30:43;;;;;;;;;;;;;;;;;;5075369;28;19920;-77
2023/03/26 14:33:09;;;;;;;;;;;;;;;;;;5075421;28;19913;-74
2023/03/26 14:35:36;;;;;;;;;;;;;;;;;;5075488;28;19915;-76
2023/03/26 14:38:02;;;;;;;;;;;;;;;;;;5075311;28;19912;-77
2023/03/26 14:40:28;;;;;;;;;;;;;;;;;;5075046;28;19920;-78
2023/03/26 14:42:54;;;;;;;;;;;;;;;;;;5075224;28;19966;-77
2023/03/26 14:45:20;;;;;;;;;;;;;;;;;;5075260;28;19954;-76
2023/03/26 14:47:46;;;;;;;;;;;;;;;;;;5075155;28;19909;-76
2023/03/26 14:50:12;;;;;;;;;;;;;;;;;;5074994;28;20029;-76
2023/03/26 14:52:38;;;;;;;;;;;;;;;;;;5075025;28;19948;-76
2023/03/26 14:55:04;;;;;;;;;;;;;;;;;;5074305;28;19959;-76
2023/03/26 14:57:30;;;;;;;;;;;;;;;;;;5074868;28;19958;-76
2023/03/26 14:59:56;;;;;;;;;;;;;;;;;;5074835;28;19915;-76
2023/03/26 15:02:22;;;;;;;;;;;;;;;;;;5074947;28;19908;-76
2023/03/26 15:04:48;;;;;;;;;;;;;;;;;;5074766;28;19954;-75
2023/03/26 15:07:14;;;;;;;;;;;;;;;;;;5074618;28;19909;-76
2023/03/26 15:09:40;;;;;;;;;;;;;;;;;;5074642;28;19912;-76
2023/03/26 15:12:06;;;;;;;;;;;;;;;;;;5073359;28;20069;-77
2023/03/26 15:14:32;;;;;;;;;;;;;;;;;;5074583;28;20352;-77
2023/03/26 15:16:58;;;;;;;;;;;;;;;;;;5074791;28;19916;-76
2023/03/26 15:19:24;;;;;;;;;;;;;;;;;;5074659;28;19909;-76
2023/03/26 15:21:50;;;;;;;;;;;;;;;;;;5074379;28;19912;-77
2023/03/26 15:24:15;;;;;;;;;;;;;;;;;;5074422;28;19916;-76
2023/03/26 15:26:41;;;;;;;;;;;;;;;;;;5074746;28;19908;-76
2023/03/26 15:29:08;;;;;;;;;;;;;;;;;;5074485;28;19908;-77
2023/03/26 15:31:35;;;;;;;;;;;;;;;;;;5074364;28;19908;-76
2023/03/26 15:34:01;;;;;;;;;;;;;;;;;;5074143;28;19908;-77
2023/03/26 15:36:27;;;;;;;;;;;;;;;;;;5074601;28;20314;-77
2023/03/26 15:38:53;;;;;;;;;;;;;;;;;;5074113;28;19908;-76
2023/03/26 15:41:19;;;;;;;;;;;;;;;;;;5073922;28;20277;-76
2023/03/26 15:43:45;;;;;;;;;;;;;;;;;;5074080;28;19909;-76
2023/03/26 15:46:11;;;;;;;;;;;;;;;;;;5074024;28;20408;-76
2023/03/26 15:48:37;;;;;;;;;;;;;;;;;;5074251;28;19956;-76
2023/03/26 15:51:03;;;;;;;;;;;;;;;;;;5074160;28;19912;-77
2023/03/26 15:53:29;;;;;;;;;;;;;;;;;;5073916;28;19920;-76
2023/03/26 15:55:55;;;;;;;;;;;;;;;;;;5073943;28;19909;-77
2023/03/26 15:58:21;;;;;;;;;;;;;;;;;;5073779;28;20007;-76
2023/03/26 16:00:47;;;;;;;;;;;;;;;;;;5073808;28;19940;-76
2023/03/26 16:03:13;;;;;;;;;;;;;;;;;;5073801;28;19913;-77
2023/03/26 16:05:39;;;;;;;;;;;;;;;;;;5072434;28;19923;-76
2023/03/26 16:08:05;;;;;;;;;;;;;;;;;;5073729;28;19912;-76
2023/03/26 16:10:31;;;;;;;;;;;;;;;;;;5073678;28;19913;-74
2023/03/26 16:12:57;;;;;;;;;;;;;;;;;;5073974;28;20464;-76
2023/03/26 16:15:23;;;;;;;;;;;;;;;;;;5072410;28;19954;-75
2023/03/26 16:17:52;;;;;;;;;;;;;;;;;;5074178;28;19908;-76
2023/03/26 16:20:18;;;;;;;;;;;;;;;;;;5073847;28;19909;-75
2023/03/26 16:22:44;;;;;;;;;;;;;;;;;;5073889;28;19909;-76
2023/03/26 16:25:10;;;;;;;;;;;;;;;;;;5073681;28;19917;-75
2023/03/26 16:27:36;;;;;;;;;;;;;;;;;;5073476;28;19909;-74
2023/03/26 16:30:03;;;;;;;;;;;;;;;;;;5073870;28;20280;-75
2023/03/26 16:32:29;;;;;;;;;;;;;;;;;;5073502;28;19913;-75
2023/03/26 16:34:56;;;;;;;;;;;;;;;;;;5073525;28;19917;-77
2023/03/26 16:37:24;;;;;;;;;;;;;;;;;;5073871;28;20333;-76